Wind From: 20-06-2018 11:00 Until: 22:00 warning for: Wind Level: Yellow info button
suomi:
Tuulivaroitus maa-alueille: Länsituuli on voimakasta keskipäivästä alkaen, tuulen nopeus puuskissa 15 m/s.

svenska:
Vindvarning för landområden: Från och med middagen är den västliga vinden kraftigt, i vindbyarna 15 m/s.

english:
Wind warning for land areas: From noon on, strong winds from west may bring strong gusts of 15 m/s. 


Thunder radar more information blitzortung!


Löydät sääaseman tiedot myös:

European Weather Network

Finland Weather Exchange

Weather Underground

AWEKAS



Weather Underground säähistoriasivu

Päivittäin yhteenveto Elokuu 3, 2017 Yksiköt:  Englantilaiset    Metriset   Molemmat
« Edellinen Päivä
Seuraava Päivä »
Päivittäin Viikoittain Kuukausittain Vuosittain Mukautettu
  Korkea: Matala: Keskiarvo:
Lämpötila: TemperatureC °F 12.3 °F 16.3 °F
Kastepiste: DewpointC °F 11.7 °F 13.3 °F
Kosteus: Humidity % 61 % 83 %
Tuulen nopeus: WindSpeedKMH mph 0.0 mph 1.3 mph
Tuulenpuuska: WindSpeedGustKMH mph - -
Tuuli:- - SW
Ilmanpaine: PressurehPa in 1003.6 in -
Sade: 0.3 in    
Historical Graphs
 
 
Taulukkotiedot Elokuu 3, 2017
Aika Lämpötila Kastepiste Ilmanpaine Tuuli Tuulen nopeus Tuulenpuuska Kosteus Sademäärä (tunneittain)
TemperatureC °F DewpointC °F PressurehPa in Calm     Humidity % HourlyPrecipMM in
00:00 12.5 °F 11.9 °F 1004.6 in Calm     96 % 0.0 in
00:15 12.4 °F 11.8 °F 1004.6 in Calm     96 % 0.0 in
00:30 12.3 °F 11.7 °F 1004.6 in Calm     96 % 0.0 in
00:45 12.3 °F 11.7 °F 1004.6 in Calm     96 % 0.0 in
01:00 12.6 °F 12.1 °F 1004.3 in Calm   3.2 mph 97 % 0.0 in
01:15 12.7 °F 12.3 °F 1004.3 in Calm     97 % 0.0 in
01:30 12.8 °F 12.3 °F 1004.3 in Calm     97 % 0.0 in
01:45 13.0 °F 12.5 °F 1004.3 in Calm   6.4 mph 97 % 0.0 in
02:00 13.1 °F 12.6 °F 1004.3 in Calm   6.4 mph 97 % 0.0 in
02:15 13.2 °F 12.7 °F 1004.3 in Calm   4.8 mph 97 % 0.0 in
02:30 13.2 °F 12.8 °F 1004.3 in SSW 1.6 mph 4.8 mph 97 % 0.0 in
02:45 13.3 °F 12.8 °F 1003.9 in SSW 1.6 mph 9.7 mph 97 % 0.0 in
03:00 13.3 °F 12.7 °F 1003.9 in SSW 1.6 mph 8.0 mph 96 % 0.0 in
03:15 13.4 °F 13.0 °F 1003.9 in SSW 3.2 mph 8.0 mph 97 % 0.0 in
03:30 13.5 °F 12.9 °F 1003.9 in SSW 3.2 mph 9.7 mph 96 % 0.0 in
03:45 13.5 °F 12.9 °F 1003.6 in SSW 1.6 mph 6.4 mph 96 % 0.0 in
04:00 13.4 °F 12.8 °F 1003.6 in Calm   4.8 mph 96 % 0.0 in
04:15 13.3 °F 12.7 °F 1003.6 in SW 1.6 mph 8.0 mph 96 % 0.0 in
04:30 13.2 °F 12.6 °F 1003.6 in SSW 3.2 mph 11.3 mph 96 % 0.0 in
04:45 13.1 °F 12.4 °F 1003.6 in SW 1.6 mph 8.0 mph 96 % 0.0 in
05:00 12.9 °F 12.3 °F 1003.6 in SSW 1.6 mph 8.0 mph 96 % 0.0 in
05:15 12.7 °F 12.0 °F 1003.6 in Calm   4.8 mph 96 % 0.0 in
05:30 12.6 °F 11.9 °F 1003.6 in Calm   6.4 mph 96 % 0.0 in
05:45 12.6 °F 11.9 °F 1003.6 in Calm   4.8 mph 96 % 0.0 in
06:00 12.8 °F 12.4 °F 1003.9 in South 1.6 mph 11.3 mph 97 % 0.0 in
06:30 13.3 °F 12.9 °F 1003.9 in SSW 1.6 mph 8.0 mph 97 % 0.0 in
06:45 13.5 °F 13.0 °F 1003.9 in SW 1.6 mph 8.0 mph 97 % 0.0 in
07:00 13.6 °F 13.1 °F 1003.9 in Calm   6.4 mph 97 % 0.0 in
07:15 13.7 °F 13.2 °F 1003.9 in Calm   8.0 mph 97 % 0.0 in
07:30 13.8 °F 13.3 °F 1003.9 in Calm   6.4 mph 97 % 0.0 in
07:45 13.9 °F 13.5 °F 1004.3 in South 1.6 mph 9.7 mph 97 % 0.0 in
08:00 14.1 °F 13.6 °F 1004.3 in SSW 1.6 mph 8.0 mph 97 % 0.0 in
08:15 14.4 °F 13.9 °F 1004.6 in Calm   1.6 mph 97 % 0.0 in
08:30 14.6 °F 13.9 °F 1004.3 in SSW 3.2 mph 12.9 mph 96 % 0.0 in
08:45 14.6 °F 13.8 °F 1004.3 in SSW 3.2 mph 11.3 mph 95 % 0.0 in
09:00 14.6 °F 13.8 °F 1004.6 in SSW 3.2 mph 12.9 mph 95 % 0.3 in
09:15 14.6 °F 13.8 °F 1005.0 in Calm     95 % 0.3 in
09:30 14.7 °F 14.0 °F 1005.0 in Calm     96 % 0.3 in
09:45 14.9 °F 14.3 °F 1005.0 in Calm   1.6 mph 96 % 0.3 in
10:00 15.1 °F 14.3 °F 1005.0 in Calm   4.8 mph 95 % 0.0 in
10:15 15.5 °F 14.7 °F 1005.0 in SSW 1.6 mph 8.0 mph 95 % 0.0 in
10:30 16.3 °F 14.8 °F 1005.0 in SW 1.6 mph 6.4 mph 91 % 0.0 in
10:45 17.1 °F 14.9 °F 1005.0 in SW 3.2 mph 14.5 mph 87 % 0.0 in
11:00 17.6 °F 14.9 °F 1005.0 in WSW 1.6 mph 11.3 mph 84 % 0.0 in
11:15 18.4 °F 14.7 °F 1005.0 in SW 3.2 mph 11.3 mph 79 % 0.0 in
11:30 17.8 °F 14.1 °F 1005.3 in West 1.6 mph 9.7 mph 79 % 0.0 in
11:45 17.2 °F 13.7 °F 1005.3 in Calm     80 % 0.0 in
12:00 18.1 °F 13.2 °F 1005.3 in SW 4.8 mph 17.7 mph 73 % 0.0 in
12:15 18.7 °F 14.2 °F 1005.3 in West 1.6 mph 8.0 mph 75 % 0.0 in
12:30 19.1 °F 14.2 °F 1005.6 in SSW 3.2 mph 11.3 mph 73 % 0.0 in
12:45 19.1 °F 14.2 °F 1005.3 in SSW 6.4 mph 12.9 mph 73 % 0.0 in
13:00 19.7 °F 14.5 °F 1005.6 in SSW 4.8 mph 12.9 mph 72 % 0.0 in
13:15 19.4 °F 14.2 °F 1005.6 in SW 1.6 mph 6.4 mph 72 % 0.0 in
13:30 19.2 °F 13.1 °F 1005.6 in NW 3.2 mph 17.7 mph 68 % 0.0 in
13:45 18.1 °F 13.3 °F 1005.6 in NW 3.2 mph 11.3 mph 74 % 0.0 in
14:00 17.4 °F 13.3 °F 1006.0 in Calm   6.4 mph 77 % 0.0 in
14:15 17.2 °F 13.2 °F 1006.0 in West 3.2 mph 9.7 mph 77 % 0.0 in
14:30 18.2 °F 13.5 °F 1006.0 in SSW 1.6 mph 8.0 mph 74 % 0.0 in
14:45 19.4 °F 14.0 °F 1006.3 in SSW 1.6 mph 9.7 mph 71 % 0.0 in
15:00 20.2 °F 14.3 °F 1006.0 in SSW 3.2 mph 9.7 mph 69 % 0.0 in
15:15 20.4 °F 14.1 °F 1006.0 in South 3.2 mph 14.5 mph 67 % 0.0 in
15:30 20.7 °F 14.3 °F 1006.0 in SSW 3.2 mph 11.3 mph 67 % 0.0 in
15:45 20.8 °F 14.0 °F 1005.6 in SSW 4.8 mph 20.9 mph 65 % 0.0 in
16:00 21.0 °F 13.4 °F 1005.6 in SSW 3.2 mph 11.3 mph 62 % 0.0 in
16:15 20.7 °F 14.1 °F 1005.6 in Calm   6.4 mph 66 % 0.0 in
16:30 21.2 °F 13.6 °F 1005.3 in SSW 3.2 mph 9.7 mph 62 % 0.0 in
16:45 21.8 °F 14.0 °F 1005.3 in West 1.6 mph 8.0 mph 61 % 0.0 in
17:00 21.9 °F 14.1 °F 1005.3 in West 1.6 mph 6.4 mph 61 % 0.0 in
17:15 22.1 °F 14.2 °F 1005.3 in West 1.6 mph 11.3 mph 61 % 0.0 in
17:30 21.2 °F 14.1 °F 1005.3 in SSW 3.2 mph 8.0 mph 64 % 0.0 in
17:45 20.6 °F 14.3 °F 1005.3 in SSW 1.6 mph 8.0 mph 67 % 0.0 in
18:00 20.4 °F 13.6 °F 1005.6 in West 1.6 mph 9.7 mph 65 % 0.0 in
18:15 20.5 °F 13.7 °F 1005.6 in Calm   8.0 mph 65 % 0.0 in
18:30 20.9 °F 13.8 °F 1005.6 in NW 1.6 mph 8.0 mph 64 % 0.0 in
18:45 21.4 °F 15.2 °F 1005.6 in Calm   4.8 mph 68 % 0.0 in
19:00 21.5 °F 14.6 °F 1005.6 in Calm   4.8 mph 65 % 0.0 in
19:15 20.9 °F 14.8 °F 1005.6 in Calm   1.6 mph 68 % 0.0 in
19:30 20.4 °F 14.3 °F 1005.6 in Calm   3.2 mph 68 % 0.0 in
19:45 19.8 °F 14.4 °F 1005.6 in Calm   1.6 mph 71 % 0.0 in
20:00 19.2 °F 14.2 °F 1006.0 in Calm     73 % 0.0 in
20:15 18.8 °F 14.7 °F 1005.6 in Calm     77 % 0.0 in
20:30 18.6 °F 14.2 °F 1005.6 in Calm   4.8 mph 76 % 0.0 in
20:45 18.6 °F 13.8 °F 1005.6 in SSW 1.6 mph 9.7 mph 74 % 0.0 in
21:00 18.4 °F 13.5 °F 1005.6 in SW 1.6 mph 8.0 mph 73 % 0.0 in
21:15 18.2 °F 13.5 °F 1005.6 in SSW 1.6 mph 6.4 mph 74 % 0.0 in
21:30 18.0 °F 13.5 °F 1005.6 in Calm   3.2 mph 75 % 0.0 in
21:45 17.9 °F 13.8 °F 1005.6 in Calm     77 % 0.0 in
22:00 17.6 °F 13.9 °F 1005.6 in Calm     79 % 0.0 in
22:15 16.9 °F 13.7 °F 1005.3 in Calm     81 % 0.0 in
22:30 16.2 °F 13.5 °F 1005.3 in Calm     84 % 0.0 in
22:45 15.4 °F 13.1 °F 1005.3 in Calm     86 % 0.0 in
23:00 14.8 °F 12.8 °F 1005.3 in Calm     88 % 0.0 in
23:15 14.2 °F 12.4 °F 1005.3 in Calm     89 % 0.0 in
23:30 13.7 °F 12.3 °F 1005.3 in Calm     91 % 0.0 in
23:45 13.2 °F 11.7 °F 1005.0 in Calm     91 % 0.0 in
Esan sääasema
Terveisin Weather Underground - 2.75 mb

Alkuperäinen skripti  Jim McMurry - jmcmurry@mwt.net Sovitettu myös templatelle  Wim van der Kuil - Leuven-Template.eu

Laitteet joita käytämme:

Sääasema
Davis VP2

Sääasemaohjelma
Cumulus

Sääaseman tietokone
Asus EeePC

Palveluntarjoaja
Suncomet

Davis VP2

Cumulus

Asus EeePC

Suncomet